sensor_id;sensor_type;location;lat;lon;timestamp;P1;durP1;ratioP1;P2;durP2;ratioP2
27209;SDS011;14721;42.668;23.386;2024-01-25T00:02:09;23.83;;;9.57;;
27209;SDS011;14721;42.668;23.386;2024-01-25T00:04:35;16.40;;;8.20;;
27209;SDS011;14721;42.668;23.386;2024-01-25T00:07:00;21.90;;;9.47;;
27209;SDS011;14721;42.668;23.386;2024-01-25T00:09:26;19.20;;;9.93;;
27209;SDS011;14721;42.668;23.386;2024-01-25T00:11:51;23.30;;;10.47;;
27209;SDS011;14721;42.668;23.386;2024-01-25T00:14:20;22.03;;;9.43;;
27209;SDS011;14721;42.668;23.386;2024-01-25T00:16:48;18.23;;;9.27;;
27209;SDS011;14721;42.668;23.386;2024-01-25T00:19:13;16.03;;;8.13;;
27209;SDS011;14721;42.668;23.386;2024-01-25T00:21:43;15.80;;;7.53;;
27209;SDS011;14721;42.668;23.386;2024-01-25T00:24:12;16.00;;;7.83;;
27209;SDS011;14721;42.668;23.386;2024-01-25T00:26:38;14.10;;;7.27;;
27209;SDS011;14721;42.668;23.386;2024-01-25T00:29:06;11.70;;;6.10;;
27209;SDS011;14721;42.668;23.386;2024-01-25T00:31:34;15.50;;;6.70;;
27209;SDS011;14721;42.668;23.386;2024-01-25T00:34:11;11.47;;;5.57;;
27209;SDS011;14721;42.668;23.386;2024-01-25T00:37:27;12.53;;;5.67;;
27209;SDS011;14721;42.668;23.386;2024-01-25T00:40:02;12.87;;;6.17;;
27209;SDS011;14721;42.668;23.386;2024-01-25T00:42:33;13.23;;;7.00;;
27209;SDS011;14721;42.668;23.386;2024-01-25T00:45:06;13.23;;;6.23;;
27209;SDS011;14721;42.668;23.386;2024-01-25T00:47:32;19.87;;;8.10;;
27209;SDS011;14721;42.668;23.386;2024-01-25T00:50:00;14.47;;;7.13;;
27209;SDS011;14721;42.668;23.386;2024-01-25T00:52:26;13.73;;;7.00;;
27209;SDS011;14721;42.668;23.386;2024-01-25T00:54:55;15.77;;;6.47;;
27209;SDS011;14721;42.668;23.386;2024-01-25T00:57:21;14.13;;;6.27;;
27209;SDS011;14721;42.668;23.386;2024-01-25T00:59:55;18.07;;;6.70;;
27209;SDS011;14721;42.668;23.386;2024-01-25T01:02:54;20.00;;;6.40;;
27209;SDS011;14721;42.668;23.386;2024-01-25T01:05:26;16.43;;;6.50;;
27209;SDS011;14721;42.668;23.386;2024-01-25T01:07:52;16.30;;;8.10;;
27209;SDS011;14721;42.668;23.386;2024-01-25T01:10:18;16.50;;;8.37;;
27209;SDS011;14721;42.668;23.386;2024-01-25T01:12:45;18.20;;;7.77;;
27209;SDS011;14721;42.668;23.386;2024-01-25T01:15:10;17.87;;;7.73;;
27209;SDS011;14721;42.668;23.386;2024-01-25T01:17:36;15.40;;;7.63;;
27209;SDS011;14721;42.668;23.386;2024-01-25T01:20:01;15.47;;;7.40;;
27209;SDS011;14721;42.668;23.386;2024-01-25T01:22:27;16.90;;;8.77;;
27209;SDS011;14721;42.668;23.386;2024-01-25T01:24:53;18.67;;;9.00;;
27209;SDS011;14721;42.668;23.386;2024-01-25T01:27:18;16.00;;;8.10;;
27209;SDS011;14721;42.668;23.386;2024-01-25T01:29:45;21.77;;;9.00;;
27209;SDS011;14721;42.668;23.386;2024-01-25T01:32:11;17.43;;;8.23;;
27209;SDS011;14721;42.668;23.386;2024-01-25T01:34:36;17.07;;;8.23;;
27209;SDS011;14721;42.668;23.386;2024-01-25T01:37:02;17.40;;;7.90;;
27209;SDS011;14721;42.668;23.386;2024-01-25T01:39:28;15.33;;;7.67;;
27209;SDS011;14721;42.668;23.386;2024-01-25T01:41:59;17.30;;;7.83;;
27209;SDS011;14721;42.668;23.386;2024-01-25T01:44:35;17.80;;;8.07;;
27209;SDS011;14721;42.668;23.386;2024-01-25T01:47:03;16.80;;;7.80;;
27209;SDS011;14721;42.668;23.386;2024-01-25T01:52:16;28.80;;;9.30;;
27209;SDS011;14721;42.668;23.386;2024-01-25T01:54:44;17.50;;;8.53;;
27209;SDS011;14721;42.668;23.386;2024-01-25T01:57:11;16.30;;;8.90;;
27209;SDS011;14721;42.668;23.386;2024-01-25T01:59:37;21.07;;;9.30;;
27209;SDS011;14721;42.668;23.386;2024-01-25T02:02:03;19.47;;;9.10;;
27209;SDS011;14721;42.668;23.386;2024-01-25T02:04:28;16.37;;;8.80;;
27209;SDS011;14721;42.668;23.386;2024-01-25T02:06:56;22.47;;;9.77;;
27209;SDS011;14721;42.668;23.386;2024-01-25T02:09:24;22.13;;;9.63;;
27209;SDS011;14721;42.668;23.386;2024-01-25T02:12:00;21.93;;;10.60;;
27209;SDS011;14721;42.668;23.386;2024-01-25T02:14:41;17.97;;;10.13;;
27209;SDS011;14721;42.668;23.386;2024-01-25T02:17:10;26.70;;;9.57;;
27209;SDS011;14721;42.668;23.386;2024-01-25T02:19:35;19.67;;;9.20;;
27209;SDS011;14721;42.668;23.386;2024-01-25T02:22:04;21.90;;;10.20;;
27209;SDS011;14721;42.668;23.386;2024-01-25T02:24:35;17.07;;;8.57;;
27209;SDS011;14721;42.668;23.386;2024-01-25T02:27:01;21.40;;;9.23;;
27209;SDS011;14721;42.668;23.386;2024-01-25T02:29:33;24.93;;;9.90;;
27209;SDS011;14721;42.668;23.386;2024-01-25T02:31:59;19.13;;;9.00;;
27209;SDS011;14721;42.668;23.386;2024-01-25T02:34:34;16.27;;;9.03;;
27209;SDS011;14721;42.668;23.386;2024-01-25T02:36:59;20.43;;;8.97;;
27209;SDS011;14721;42.668;23.386;2024-01-25T02:39:36;22.43;;;9.00;;
27209;SDS011;14721;42.668;23.386;2024-01-25T02:42:01;29.43;;;8.77;;
27209;SDS011;14721;42.668;23.386;2024-01-25T02:44:28;26.40;;;8.70;;
27209;SDS011;14721;42.668;23.386;2024-01-25T02:46:54;16.63;;;8.47;;
27209;SDS011;14721;42.668;23.386;2024-01-25T02:49:19;24.23;;;9.93;;
27209;SDS011;14721;42.668;23.386;2024-01-25T02:51:45;17.73;;;9.47;;
27209;SDS011;14721;42.668;23.386;2024-01-25T02:54:13;21.83;;;8.87;;
27209;SDS011;14721;42.668;23.386;2024-01-25T02:56:38;19.30;;;8.67;;
27209;SDS011;14721;42.668;23.386;2024-01-25T02:59:04;19.90;;;8.00;;
27209;SDS011;14721;42.668;23.386;2024-01-25T03:01:37;18.00;;;8.10;;
27209;SDS011;14721;42.668;23.386;2024-01-25T03:04:08;15.23;;;7.13;;
27209;SDS011;14721;42.668;23.386;2024-01-25T03:06:34;16.67;;;7.93;;
27209;SDS011;14721;42.668;23.386;2024-01-25T03:09:02;18.93;;;8.07;;
27209;SDS011;14721;42.668;23.386;2024-01-25T03:11:48;17.90;;;8.43;;
27209;SDS011;14721;42.668;23.386;2024-01-25T03:14:14;23.83;;;8.20;;
27209;SDS011;14721;42.668;23.386;2024-01-25T03:16:43;19.20;;;7.87;;
27209;SDS011;14721;42.668;23.386;2024-01-25T03:19:09;16.50;;;7.60;;
27209;SDS011;14721;42.668;23.386;2024-01-25T03:21:35;15.37;;;6.50;;
27209;SDS011;14721;42.668;23.386;2024-01-25T03:24:01;18.17;;;7.77;;
27209;SDS011;14721;42.668;23.386;2024-01-25T03:26:27;14.77;;;7.30;;
27209;SDS011;14721;42.668;23.386;2024-01-25T03:28:58;13.53;;;6.73;;
27209;SDS011;14721;42.668;23.386;2024-01-25T03:31:23;17.73;;;6.60;;
27209;SDS011;14721;42.668;23.386;2024-01-25T03:34:02;13.43;;;6.87;;
27209;SDS011;14721;42.668;23.386;2024-01-25T03:36:34;12.57;;;5.90;;
27209;SDS011;14721;42.668;23.386;2024-01-25T03:39:04;11.77;;;5.50;;
27209;SDS011;14721;42.668;23.386;2024-01-25T03:41:33;12.67;;;5.97;;
27209;SDS011;14721;42.668;23.386;2024-01-25T03:43:59;9.93;;;4.67;;
27209;SDS011;14721;42.668;23.386;2024-01-25T03:46:24;8.13;;;3.50;;
27209;SDS011;14721;42.668;23.386;2024-01-25T03:48:50;2.77;;;0.80;;
27209;SDS011;14721;42.668;23.386;2024-01-25T03:51:16;2.17;;;0.93;;
27209;SDS011;14721;42.668;23.386;2024-01-25T03:53:45;0.77;;;0.33;;
27209;SDS011;14721;42.668;23.386;2024-01-25T03:56:13;2.63;;;0.63;;
27209;SDS011;14721;42.668;23.386;2024-01-25T03:58:38;2.57;;;0.87;;
27209;SDS011;14721;42.668;23.386;2024-01-25T04:01:31;1.70;;;0.77;;
27209;SDS011;14721;42.668;23.386;2024-01-25T04:04:10;1.13;;;0.80;;
27209;SDS011;14721;42.668;23.386;2024-01-25T04:06:49;3.10;;;1.00;;
27209;SDS011;14721;42.668;23.386;2024-01-25T04:09:25;1.63;;;0.90;;
27209;SDS011;14721;42.668;23.386;2024-01-25T04:11:51;3.33;;;1.00;;
27209;SDS011;14721;42.668;23.386;2024-01-25T04:14:16;3.20;;;1.00;;
27209;SDS011;14721;42.668;23.386;2024-01-25T04:16:45;3.77;;;1.40;;
27209;SDS011;14721;42.668;23.386;2024-01-25T04:19:20;4.07;;;2.20;;
27209;SDS011;14721;42.668;23.386;2024-01-25T04:21:48;4.23;;;1.70;;
27209;SDS011;14721;42.668;23.386;2024-01-25T04:24:24;2.67;;;1.27;;
27209;SDS011;14721;42.668;23.386;2024-01-25T04:26:50;4.27;;;1.50;;
27209;SDS011;14721;42.668;23.386;2024-01-25T04:29:16;4.50;;;1.53;;
27209;SDS011;14721;42.668;23.386;2024-01-25T04:31:44;3.03;;;1.33;;
27209;SDS011;14721;42.668;23.386;2024-01-25T04:34:11;3.70;;;1.67;;
27209;SDS011;14721;42.668;23.386;2024-01-25T04:36:40;5.33;;;2.13;;
27209;SDS011;14721;42.668;23.386;2024-01-25T04:39:10;4.90;;;2.30;;
27209;SDS011;14721;42.668;23.386;2024-01-25T04:41:36;3.60;;;1.67;;
27209;SDS011;14721;42.668;23.386;2024-01-25T04:44:04;4.90;;;2.30;;
27209;SDS011;14721;42.668;23.386;2024-01-25T04:46:30;7.37;;;2.43;;
27209;SDS011;14721;42.668;23.386;2024-01-25T04:49:04;4.70;;;1.83;;
27209;SDS011;14721;42.668;23.386;2024-01-25T04:51:30;3.80;;;1.70;;
27209;SDS011;14721;42.668;23.386;2024-01-25T04:54:00;4.97;;;2.10;;
27209;SDS011;14721;42.668;23.386;2024-01-25T04:56:25;6.50;;;2.00;;
27209;SDS011;14721;42.668;23.386;2024-01-25T04:58:51;6.10;;;1.90;;
27209;SDS011;14721;42.668;23.386;2024-01-25T05:01:20;5.13;;;2.03;;
27209;SDS011;14721;42.668;23.386;2024-01-25T05:03:45;7.00;;;2.27;;
27209;SDS011;14721;42.668;23.386;2024-01-25T05:06:21;4.53;;;2.07;;
27209;SDS011;14721;42.668;23.386;2024-01-25T05:08:47;4.90;;;2.17;;
27209;SDS011;14721;42.668;23.386;2024-01-25T05:11:12;5.07;;;2.13;;
27209;SDS011;14721;42.668;23.386;2024-01-25T05:13:38;4.63;;;2.53;;
27209;SDS011;14721;42.668;23.386;2024-01-25T05:16:03;3.37;;;1.67;;
27209;SDS011;14721;42.668;23.386;2024-01-25T05:18:29;4.57;;;2.10;;
27209;SDS011;14721;42.668;23.386;2024-01-25T05:20:55;4.60;;;2.17;;
27209;SDS011;14721;42.668;23.386;2024-01-25T05:23:20;3.80;;;1.00;;
27209;SDS011;14721;42.668;23.386;2024-01-25T05:25:48;3.43;;;1.70;;
27209;SDS011;14721;42.668;23.386;2024-01-25T05:28:21;3.97;;;1.93;;
27209;SDS011;14721;42.668;23.386;2024-01-25T05:30:50;4.50;;;1.73;;
27209;SDS011;14721;42.668;23.386;2024-01-25T05:33:15;3.03;;;1.20;;
27209;SDS011;14721;42.668;23.386;2024-01-25T05:35:43;3.13;;;1.40;;
27209;SDS011;14721;42.668;23.386;2024-01-25T05:38:09;4.43;;;1.53;;
27209;SDS011;14721;42.668;23.386;2024-01-25T05:40:35;2.73;;;1.10;;
27209;SDS011;14721;42.668;23.386;2024-01-25T05:43:11;5.37;;;1.80;;
27209;SDS011;14721;42.668;23.386;2024-01-25T05:45:45;3.47;;;0.90;;
27209;SDS011;14721;42.668;23.386;2024-01-25T05:48:12;6.47;;;1.70;;
27209;SDS011;14721;42.668;23.386;2024-01-25T05:50:40;1.37;;;1.10;;
27209;SDS011;14721;42.668;23.386;2024-01-25T05:53:05;2.33;;;1.10;;
27209;SDS011;14721;42.668;23.386;2024-01-25T05:55:31;2.60;;;1.40;;
27209;SDS011;14721;42.668;23.386;2024-01-25T05:57:57;2.53;;;1.37;;
27209;SDS011;14721;42.668;23.386;2024-01-25T06:00:24;3.50;;;1.60;;
27209;SDS011;14721;42.668;23.386;2024-01-25T06:02:51;6.37;;;2.03;;
27209;SDS011;14721;42.668;23.386;2024-01-25T06:07:57;2.63;;;1.43;;
27209;SDS011;14721;42.668;23.386;2024-01-25T06:10:25;6.23;;;1.57;;
27209;SDS011;14721;42.668;23.386;2024-01-25T06:13:02;2.93;;;1.40;;
27209;SDS011;14721;42.668;23.386;2024-01-25T06:15:28;4.23;;;1.90;;
27209;SDS011;14721;42.668;23.386;2024-01-25T06:17:53;3.73;;;1.50;;
27209;SDS011;14721;42.668;23.386;2024-01-25T06:20:22;6.93;;;1.53;;
27209;SDS011;14721;42.668;23.386;2024-01-25T06:22:49;5.63;;;1.40;;
27209;SDS011;14721;42.668;23.386;2024-01-25T06:25:23;4.27;;;1.53;;
27209;SDS011;14721;42.668;23.386;2024-01-25T06:27:53;5.90;;;1.70;;
27209;SDS011;14721;42.668;23.386;2024-01-25T06:30:24;5.17;;;1.63;;
27209;SDS011;14721;42.668;23.386;2024-01-25T06:36:11;3.80;;;1.60;;
27209;SDS011;14721;42.668;23.386;2024-01-25T06:38:42;2.33;;;1.07;;
27209;SDS011;14721;42.668;23.386;2024-01-25T06:41:19;3.80;;;1.70;;
27209;SDS011;14721;42.668;23.386;2024-01-25T06:43:51;4.87;;;1.50;;
27209;SDS011;14721;42.668;23.386;2024-01-25T06:46:19;3.57;;;1.83;;
27209;SDS011;14721;42.668;23.386;2024-01-25T06:49:00;7.10;;;1.73;;
27209;SDS011;14721;42.668;23.386;2024-01-25T06:51:40;4.37;;;2.10;;
27209;SDS011;14721;42.668;23.386;2024-01-25T06:54:05;7.13;;;2.50;;
27209;SDS011;14721;42.668;23.386;2024-01-25T06:56:38;3.97;;;1.40;;
27209;SDS011;14721;42.668;23.386;2024-01-25T06:59:06;4.00;;;1.77;;
27209;SDS011;14721;42.668;23.386;2024-01-25T07:01:34;2.87;;;1.50;;
27209;SDS011;14721;42.668;23.386;2024-01-25T07:04:03;7.77;;;1.57;;
27209;SDS011;14721;42.668;23.386;2024-01-25T07:06:31;3.57;;;1.57;;
27209;SDS011;14721;42.668;23.386;2024-01-25T07:09:00;3.23;;;1.43;;
27209;SDS011;14721;42.668;23.386;2024-01-25T07:11:26;4.20;;;1.50;;
27209;SDS011;14721;42.668;23.386;2024-01-25T07:14:03;1.80;;;0.90;;
27209;SDS011;14721;42.668;23.386;2024-01-25T07:16:31;2.97;;;1.13;;
27209;SDS011;14721;42.668;23.386;2024-01-25T07:19:11;5.20;;;1.30;;
27209;SDS011;14721;42.668;23.386;2024-01-25T07:21:44;4.37;;;1.43;;
27209;SDS011;14721;42.668;23.386;2024-01-25T07:24:22;4.40;;;1.50;;
27209;SDS011;14721;42.668;23.386;2024-01-25T07:26:47;4.20;;;1.60;;
27209;SDS011;14721;42.668;23.386;2024-01-25T07:29:13;3.90;;;1.27;;
27209;SDS011;14721;42.668;23.386;2024-01-25T07:31:38;4.23;;;1.73;;
27209;SDS011;14721;42.668;23.386;2024-01-25T07:34:04;5.80;;;1.90;;
27209;SDS011;14721;42.668;23.386;2024-01-25T07:36:29;5.87;;;1.83;;
27209;SDS011;14721;42.668;23.386;2024-01-25T07:38:55;3.13;;;1.27;;
27209;SDS011;14721;42.668;23.386;2024-01-25T07:41:21;5.77;;;1.93;;
27209;SDS011;14721;42.668;23.386;2024-01-25T07:43:47;3.53;;;1.37;;
27209;SDS011;14721;42.668;23.386;2024-01-25T07:46:13;4.07;;;1.03;;
27209;SDS011;14721;42.668;23.386;2024-01-25T07:48:40;4.43;;;1.53;;
27209;SDS011;14721;42.668;23.386;2024-01-25T07:51:12;5.13;;;1.23;;
27209;SDS011;14721;42.668;23.386;2024-01-25T07:53:40;3.77;;;1.50;;
27209;SDS011;14721;42.668;23.386;2024-01-25T07:56:07;4.27;;;1.50;;
27209;SDS011;14721;42.668;23.386;2024-01-25T07:58:42;5.00;;;1.47;;
27209;SDS011;14721;42.668;23.386;2024-01-25T08:01:11;4.73;;;1.87;;
27209;SDS011;14721;42.668;23.386;2024-01-25T08:03:44;4.87;;;1.37;;
27209;SDS011;14721;42.668;23.386;2024-01-25T08:06:10;6.17;;;1.97;;
27209;SDS011;14721;42.668;23.386;2024-01-25T08:08:36;5.47;;;1.70;;
27209;SDS011;14721;42.668;23.386;2024-01-25T08:11:02;5.80;;;1.57;;
27209;SDS011;14721;42.668;23.386;2024-01-25T08:13:32;3.93;;;1.80;;
27209;SDS011;14721;42.668;23.386;2024-01-25T08:16:00;4.67;;;1.70;;
27209;SDS011;14721;42.668;23.386;2024-01-25T08:18:27;7.83;;;1.60;;
27209;SDS011;14721;42.668;23.386;2024-01-25T08:20:55;1.37;;;0.80;;
27209;SDS011;14721;42.668;23.386;2024-01-25T08:23:25;3.87;;;1.40;;
27209;SDS011;14721;42.668;23.386;2024-01-25T08:31:13;5.13;;;1.47;;
27209;SDS011;14721;42.668;23.386;2024-01-25T08:33:45;7.17;;;1.47;;
27209;SDS011;14721;42.668;23.386;2024-01-25T08:36:20;10.57;;;3.63;;
27209;SDS011;14721;42.668;23.386;2024-01-25T08:39:29;5.73;;;1.90;;
27209;SDS011;14721;42.668;23.386;2024-01-25T08:48:22;7.50;;;1.90;;
27209;SDS011;14721;42.668;23.386;2024-01-25T08:50:50;4.13;;;1.53;;
27209;SDS011;14721;42.668;23.386;2024-01-25T08:53:20;4.70;;;1.20;;
27209;SDS011;14721;42.668;23.386;2024-01-25T08:55:52;5.20;;;1.80;;
27209;SDS011;14721;42.668;23.386;2024-01-25T08:58:25;3.07;;;1.07;;
27209;SDS011;14721;42.668;23.386;2024-01-25T09:01:30;5.57;;;1.37;;
27209;SDS011;14721;42.668;23.386;2024-01-25T09:03:56;4.63;;;1.40;;
27209;SDS011;14721;42.668;23.386;2024-01-25T09:09:56;8.77;;;2.13;;
27209;SDS011;14721;42.668;23.386;2024-01-25T09:12:31;5.70;;;2.00;;
27209;SDS011;14721;42.668;23.386;2024-01-25T09:15:38;6.10;;;1.70;;
27209;SDS011;14721;42.668;23.386;2024-01-25T09:18:19;9.77;;;1.80;;
27209;SDS011;14721;42.668;23.386;2024-01-25T09:28:05;6.67;;;1.80;;
27209;SDS011;14721;42.668;23.386;2024-01-25T09:31:02;7.63;;;1.70;;
27209;SDS011;14721;42.668;23.386;2024-01-25T09:33:31;7.70;;;1.67;;
27209;SDS011;14721;42.668;23.386;2024-01-25T09:39:47;6.13;;;1.60;;
27209;SDS011;14721;42.668;23.386;2024-01-25T09:42:47;11.03;;;2.13;;
27209;SDS011;14721;42.668;23.386;2024-01-25T09:45:42;7.70;;;2.13;;
27209;SDS011;14721;42.668;23.386;2024-01-25T09:48:37;10.43;;;2.67;;
27209;SDS011;14721;42.668;23.386;2024-01-25T09:51:16;10.90;;;2.23;;
27209;SDS011;14721;42.668;23.386;2024-01-25T09:54:13;7.90;;;2.63;;
27209;SDS011;14721;42.668;23.386;2024-01-25T09:56:53;9.03;;;1.90;;
27209;SDS011;14721;42.668;23.386;2024-01-25T09:59:22;6.40;;;1.67;;
27209;SDS011;14721;42.668;23.386;2024-01-25T10:01:51;5.07;;;2.23;;
27209;SDS011;14721;42.668;23.386;2024-01-25T10:04:25;7.93;;;2.47;;
27209;SDS011;14721;42.668;23.386;2024-01-25T10:06:58;6.17;;;2.13;;
27209;SDS011;14721;42.668;23.386;2024-01-25T10:09:26;5.53;;;1.80;;
27209;SDS011;14721;42.668;23.386;2024-01-25T10:12:09;7.30;;;2.30;;
27209;SDS011;14721;42.668;23.386;2024-01-25T10:14:47;5.77;;;1.97;;
27209;SDS011;14721;42.668;23.386;2024-01-25T10:17:16;5.50;;;1.83;;
27209;SDS011;14721;42.668;23.386;2024-01-25T10:19:45;6.57;;;1.93;;
27209;SDS011;14721;42.668;23.386;2024-01-25T10:22:24;7.53;;;2.00;;
27209;SDS011;14721;42.668;23.386;2024-01-25T10:25:12;8.80;;;2.27;;
27209;SDS011;14721;42.668;23.386;2024-01-25T10:27:46;7.90;;;2.53;;
27209;SDS011;14721;42.668;23.386;2024-01-25T10:30:16;8.73;;;2.60;;
27209;SDS011;14721;42.668;23.386;2024-01-25T10:32:52;6.20;;;2.30;;
27209;SDS011;14721;42.668;23.386;2024-01-25T10:35:22;6.80;;;2.30;;
27209;SDS011;14721;42.668;23.386;2024-01-25T10:57:51;3.60;;;1.70;;
27209;SDS011;14721;42.668;23.386;2024-01-25T11:00:17;8.20;;;1.87;;
27209;SDS011;14721;42.668;23.386;2024-01-25T11:02:46;5.93;;;1.73;;
27209;SDS011;14721;42.668;23.386;2024-01-25T11:05:12;9.60;;;2.80;;
27209;SDS011;14721;42.668;23.386;2024-01-25T11:07:52;9.87;;;2.97;;
27209;SDS011;14721;42.668;23.386;2024-01-25T11:10:24;7.20;;;1.93;;
27209;SDS011;14721;42.668;23.386;2024-01-25T11:15:22;3.40;;;1.77;;
27209;SDS011;14721;42.668;23.386;2024-01-25T11:17:58;8.53;;;2.70;;
27209;SDS011;14721;42.668;23.386;2024-01-25T11:20:24;5.37;;;1.80;;
27209;SDS011;14721;42.668;23.386;2024-01-25T11:23:04;5.87;;;2.17;;
27209;SDS011;14721;42.668;23.386;2024-01-25T11:25:31;4.97;;;2.10;;
27209;SDS011;14721;42.668;23.386;2024-01-25T11:27:58;3.10;;;1.60;;
27209;SDS011;14721;42.668;23.386;2024-01-25T11:30:25;7.83;;;2.40;;
27209;SDS011;14721;42.668;23.386;2024-01-25T11:32:51;9.83;;;2.70;;
27209;SDS011;14721;42.668;23.386;2024-01-25T11:35:17;5.97;;;2.40;;
27209;SDS011;14721;42.668;23.386;2024-01-25T11:37:46;13.83;;;3.83;;
27209;SDS011;14721;42.668;23.386;2024-01-25T11:40:13;5.73;;;2.30;;
27209;SDS011;14721;42.668;23.386;2024-01-25T11:42:43;7.73;;;2.10;;
27209;SDS011;14721;42.668;23.386;2024-01-25T11:45:11;7.57;;;2.57;;
27209;SDS011;14721;42.668;23.386;2024-01-25T11:47:37;7.30;;;1.80;;
27209;SDS011;14721;42.668;23.386;2024-01-25T11:50:04;6.40;;;2.33;;
27209;SDS011;14721;42.668;23.386;2024-01-25T11:52:31;5.47;;;2.33;;
27209;SDS011;14721;42.668;23.386;2024-01-25T11:54:58;5.60;;;2.13;;
27209;SDS011;14721;42.668;23.386;2024-01-25T11:57:24;7.97;;;1.97;;
27209;SDS011;14721;42.668;23.386;2024-01-25T11:59:50;10.57;;;2.83;;
27209;SDS011;14721;42.668;23.386;2024-01-25T12:02:16;7.90;;;1.73;;
27209;SDS011;14721;42.668;23.386;2024-01-25T12:04:42;7.00;;;2.40;;
27209;SDS011;14721;42.668;23.386;2024-01-25T12:07:08;4.10;;;1.90;;
27209;SDS011;14721;42.668;23.386;2024-01-25T12:09:33;4.60;;;1.83;;
27209;SDS011;14721;42.668;23.386;2024-01-25T12:12:02;7.70;;;2.10;;
27209;SDS011;14721;42.668;23.386;2024-01-25T12:14:30;4.60;;;1.47;;
27209;SDS011;14721;42.668;23.386;2024-01-25T12:16:55;6.53;;;1.67;;
27209;SDS011;14721;42.668;23.386;2024-01-25T12:19:21;7.67;;;1.93;;
27209;SDS011;14721;42.668;23.386;2024-01-25T12:21:47;6.37;;;1.90;;
27209;SDS011;14721;42.668;23.386;2024-01-25T12:24:13;7.20;;;1.70;;
27209;SDS011;14721;42.668;23.386;2024-01-25T12:26:41;8.13;;;1.57;;
27209;SDS011;14721;42.668;23.386;2024-01-25T12:29:07;5.03;;;2.10;;
27209;SDS011;14721;42.668;23.386;2024-01-25T12:31:36;8.83;;;2.43;;
27209;SDS011;14721;42.668;23.386;2024-01-25T12:34:02;6.47;;;2.03;;
27209;SDS011;14721;42.668;23.386;2024-01-25T12:36:28;1.23;;;0.87;;
27209;SDS011;14721;42.668;23.386;2024-01-25T12:38:54;6.07;;;1.80;;
27209;SDS011;14721;42.668;23.386;2024-01-25T12:41:20;9.03;;;1.87;;
27209;SDS011;14721;42.668;23.386;2024-01-25T12:43:47;11.70;;;1.90;;
27209;SDS011;14721;42.668;23.386;2024-01-25T12:46:13;7.27;;;2.33;;
27209;SDS011;14721;42.668;23.386;2024-01-25T12:48:44;7.67;;;1.60;;
27209;SDS011;14721;42.668;23.386;2024-01-25T12:51:22;8.00;;;1.70;;
27209;SDS011;14721;42.668;23.386;2024-01-25T12:53:50;5.97;;;1.63;;
27209;SDS011;14721;42.668;23.386;2024-01-25T12:56:16;5.37;;;1.57;;
27209;SDS011;14721;42.668;23.386;2024-01-25T12:58:42;2.50;;;1.27;;
27209;SDS011;14721;42.668;23.386;2024-01-25T13:01:07;4.77;;;1.73;;
27209;SDS011;14721;42.668;23.386;2024-01-25T13:03:34;8.27;;;2.33;;
27209;SDS011;14721;42.668;23.386;2024-01-25T13:06:00;10.10;;;2.20;;
27209;SDS011;14721;42.668;23.386;2024-01-25T13:08:28;4.97;;;1.70;;
27209;SDS011;14721;42.668;23.386;2024-01-25T13:10:57;6.90;;;1.80;;
27209;SDS011;14721;42.668;23.386;2024-01-25T13:13:22;5.10;;;1.50;;
27209;SDS011;14721;42.668;23.386;2024-01-25T13:15:58;9.90;;;2.17;;
27209;SDS011;14721;42.668;23.386;2024-01-25T13:18:26;13.50;;;1.80;;
27209;SDS011;14721;42.668;23.386;2024-01-25T13:20:52;2.77;;;1.00;;
27209;SDS011;14721;42.668;23.386;2024-01-25T13:23:18;10.67;;;2.17;;
27209;SDS011;14721;42.668;23.386;2024-01-25T13:25:43;6.33;;;1.77;;
27209;SDS011;14721;42.668;23.386;2024-01-25T13:28:19;8.70;;;2.00;;
27209;SDS011;14721;42.668;23.386;2024-01-25T13:30:45;12.00;;;1.83;;
27209;SDS011;14721;42.668;23.386;2024-01-25T13:33:12;6.97;;;2.40;;
27209;SDS011;14721;42.668;23.386;2024-01-25T13:35:40;8.87;;;1.80;;
27209;SDS011;14721;42.668;23.386;2024-01-25T13:38:13;4.33;;;1.77;;
27209;SDS011;14721;42.668;23.386;2024-01-25T13:40:41;3.70;;;1.37;;
27209;SDS011;14721;42.668;23.386;2024-01-25T13:43:17;5.50;;;1.50;;
27209;SDS011;14721;42.668;23.386;2024-01-25T13:45:45;11.23;;;2.63;;
27209;SDS011;14721;42.668;23.386;2024-01-25T13:48:18;5.43;;;1.83;;
27209;SDS011;14721;42.668;23.386;2024-01-25T13:50:44;8.47;;;1.43;;
27209;SDS011;14721;42.668;23.386;2024-01-25T13:56:12;4.70;;;1.53;;
27209;SDS011;14721;42.668;23.386;2024-01-25T13:59:20;8.03;;;1.80;;
27209;SDS011;14721;42.668;23.386;2024-01-25T14:01:55;7.33;;;1.47;;
27209;SDS011;14721;42.668;23.386;2024-01-25T14:04:41;7.03;;;1.70;;
27209;SDS011;14721;42.668;23.386;2024-01-25T14:07:13;8.80;;;1.90;;
27209;SDS011;14721;42.668;23.386;2024-01-25T14:10:00;9.03;;;2.70;;
27209;SDS011;14721;42.668;23.386;2024-01-25T14:12:42;7.60;;;2.00;;
27209;SDS011;14721;42.668;23.386;2024-01-25T14:15:21;9.77;;;2.50;;
27209;SDS011;14721;42.668;23.386;2024-01-25T14:17:55;9.43;;;2.30;;
27209;SDS011;14721;42.668;23.386;2024-01-25T14:20:23;17.53;;;2.23;;
27209;SDS011;14721;42.668;23.386;2024-01-25T14:22:53;9.47;;;2.30;;
27209;SDS011;14721;42.668;23.386;2024-01-25T14:25:19;9.23;;;2.10;;
27209;SDS011;14721;42.668;23.386;2024-01-25T14:27:44;8.73;;;2.33;;
27209;SDS011;14721;42.668;23.386;2024-01-25T14:30:16;11.93;;;2.53;;
27209;SDS011;14721;42.668;23.386;2024-01-25T14:32:42;6.50;;;1.73;;
27209;SDS011;14721;42.668;23.386;2024-01-25T14:35:07;9.20;;;2.53;;
27209;SDS011;14721;42.668;23.386;2024-01-25T14:37:38;3.60;;;1.47;;
27209;SDS011;14721;42.668;23.386;2024-01-25T14:40:06;8.63;;;2.30;;
27209;SDS011;14721;42.668;23.386;2024-01-25T14:42:32;7.17;;;2.33;;
27209;SDS011;14721;42.668;23.386;2024-01-25T14:44:58;4.40;;;1.40;;
27209;SDS011;14721;42.668;23.386;2024-01-25T14:47:23;7.87;;;1.90;;
27209;SDS011;14721;42.668;23.386;2024-01-25T14:49:49;8.67;;;2.07;;
27209;SDS011;14721;42.668;23.386;2024-01-25T14:52:16;7.30;;;1.67;;
27209;SDS011;14721;42.668;23.386;2024-01-25T14:54:43;9.30;;;2.50;;
27209;SDS011;14721;42.668;23.386;2024-01-25T14:57:09;5.60;;;1.70;;
27209;SDS011;14721;42.668;23.386;2024-01-25T14:59:37;9.20;;;1.67;;
27209;SDS011;14721;42.668;23.386;2024-01-25T15:02:13;6.03;;;2.30;;
27209;SDS011;14721;42.668;23.386;2024-01-25T15:04:38;6.83;;;2.40;;
27209;SDS011;14721;42.668;23.386;2024-01-25T15:07:24;3.43;;;1.23;;
27209;SDS011;14721;42.668;23.386;2024-01-25T15:09:50;7.70;;;2.07;;
27209;SDS011;14721;42.668;23.386;2024-01-25T15:12:26;7.53;;;1.90;;
27209;SDS011;14721;42.668;23.386;2024-01-25T15:14:51;7.80;;;2.63;;
27209;SDS011;14721;42.668;23.386;2024-01-25T15:17:17;5.23;;;1.77;;
27209;SDS011;14721;42.668;23.386;2024-01-25T15:19:42;5.93;;;2.37;;
27209;SDS011;14721;42.668;23.386;2024-01-25T15:22:09;5.40;;;1.40;;
27209;SDS011;14721;42.668;23.386;2024-01-25T15:24:35;7.27;;;1.60;;
27209;SDS011;14721;42.668;23.386;2024-01-25T15:27:00;6.80;;;2.03;;
27209;SDS011;14721;42.668;23.386;2024-01-25T15:29:26;5.43;;;1.70;;
27209;SDS011;14721;42.668;23.386;2024-01-25T15:31:54;4.77;;;1.83;;
27209;SDS011;14721;42.668;23.386;2024-01-25T15:34:20;6.57;;;1.90;;
27209;SDS011;14721;42.668;23.386;2024-01-25T15:36:46;8.07;;;1.73;;
27209;SDS011;14721;42.668;23.386;2024-01-25T15:39:21;8.70;;;2.17;;
27209;SDS011;14721;42.668;23.386;2024-01-25T15:41:50;7.47;;;2.07;;
27209;SDS011;14721;42.668;23.386;2024-01-25T15:44:17;8.40;;;2.50;;
27209;SDS011;14721;42.668;23.386;2024-01-25T15:46:43;7.67;;;2.40;;
27209;SDS011;14721;42.668;23.386;2024-01-25T15:49:09;7.30;;;2.07;;